Time;durP1;ratioP1;P1;durP2;ratioP2;P2;SDS_P1;SDS_P2;PMS_P1;PMS_P2;Temp;Humidity;BMP_temperature;BMP_pressure;BME280_temperature;BME280_humidity;BME280_pressure;Samples;Min_cycle;Max_cycle;Signal;HPM_P1;HPM_P2
2021/05/16 00:00:11;;;;;;;22.37;18.43;;;10.80;99.90;;;;;;6264603;22;20378;-78
2021/05/16 00:02:37;;;;;;;23.40;19.63;;;10.90;99.90;;;;;;6260623;22;20193;-78
2021/05/16 00:05:06;;;;;;;22.73;19.07;;;10.90;99.90;;;;;;6265257;22;20172;-79
2021/05/16 00:07:32;;;;;;;25.80;20.50;;;10.90;99.90;;;;;;6264710;22;20173;-80
2021/05/16 00:09:58;;;;;;;24.07;20.00;;;10.90;99.90;;;;;;6265444;22;20176;-80
2021/05/16 00:12:25;;;;;;;24.40;20.30;;;10.90;99.90;;;;;;6265382;22;20632;-78
2021/05/16 00:14:51;;;;;;;29.37;20.70;;;10.90;99.90;;;;;;6263867;22;20165;-78
2021/05/16 00:17:17;;;;;;;23.23;19.33;;;10.90;99.90;;;;;;6265446;22;20177;-82
2021/05/16 00:19:45;;;;;;;24.67;20.20;;;10.90;99.90;;;;;;6264689;22;20176;-79
2021/05/16 00:22:12;;;;;;;24.37;21.67;;;10.90;99.90;;;;;;6238398;22;20279;-80
2021/05/16 00:24:38;;;;;;;24.13;19.07;;;10.90;99.90;;;;;;6265071;22;20173;-76
2021/05/16 00:27:05;;;;;;;29.50;21.53;;;10.90;99.90;;;;;;6264257;22;20184;-79
2021/05/16 00:29:31;;;;;;;26.50;21.83;;;10.90;99.90;;;;;;6265065;22;20243;-79
2021/05/16 00:31:58;;;;;;;26.10;21.77;;;10.90;99.90;;;;;;6264475;22;20168;-77
2021/05/16 00:34:24;;;;;;;25.63;21.40;;;10.90;99.90;;;;;;6264540;22;20521;-77
2021/05/16 00:36:51;;;;;;;21.73;18.70;;;10.90;99.90;;;;;;6264939;22;20203;-79
2021/05/16 00:39:18;;;;;;;25.40;20.80;;;10.90;99.90;;;;;;6264948;22;20196;-78
2021/05/16 00:41:44;;;;;;;24.47;19.27;;;10.90;99.90;;;;;;6263942;22;20195;-78
2021/05/16 00:44:10;;;;;;;24.70;19.33;;;10.90;99.90;;;;;;6264439;22;20437;-78
2021/05/16 00:46:37;;;;;;;32.50;23.07;;;11.00;99.90;;;;;;6265021;22;20200;-79
2021/05/16 00:49:04;;;;;;;29.93;22.80;;;11.00;99.90;;;;;;6263288;22;20219;-79
2021/05/16 00:51:30;;;;;;;29.30;21.10;;;11.00;99.90;;;;;;6264799;22;20184;-78
2021/05/16 00:53:58;;;;;;;27.57;21.60;;;10.90;99.90;;;;;;6263594;22;20173;-79
2021/05/16 00:56:25;;;;;;;33.47;23.10;;;11.00;99.90;;;;;;6262298;22;20437;-78
2021/05/16 00:58:51;;;;;;;32.33;21.83;;;11.00;99.90;;;;;;6263679;22;20227;-79
2021/05/16 01:01:20;;;;;;;30.37;20.93;;;11.00;99.90;;;;;;6264973;22;20165;-77
2021/05/16 01:03:46;;;;;;;30.13;21.80;;;11.00;99.90;;;;;;6263529;22;20204;-77
2021/05/16 01:06:13;;;;;;;35.77;23.73;;;11.00;99.90;;;;;;6264839;22;20183;-78
2021/05/16 01:08:39;;;;;;;27.87;20.20;;;10.90;99.90;;;;;;6264787;22;20203;-78
2021/05/16 01:11:06;;;;;;;32.40;21.43;;;10.90;99.90;;;;;;6264254;22;20172;-78
2021/05/16 01:13:35;;;;;;;34.33;22.03;;;10.90;99.90;;;;;;6264733;22;20164;-79
2021/05/16 01:16:01;;;;;;;30.67;21.47;;;10.90;99.90;;;;;;6262108;22;20644;-79
2021/05/16 01:18:27;;;;;;;32.10;22.10;;;10.80;99.90;;;;;;6264389;22;20882;-79
2021/05/16 01:20:54;;;;;;;36.57;22.27;;;10.80;99.90;;;;;;6265333;22;20176;-77
2021/05/16 01:23:27;;;;;;;27.47;20.63;;;10.80;99.90;;;;;;6263839;22;20176;-79
2021/05/16 01:25:53;;;;;;;33.20;21.13;;;10.80;99.90;;;;;;6265027;22;20168;-78
2021/05/16 01:28:21;;;;;;;29.77;20.07;;;10.90;99.90;;;;;;6265155;22;20207;-78
2021/05/16 01:30:49;;;;;;;31.13;18.77;;;10.90;99.90;;;;;;6261457;22;20431;-80
2021/05/16 01:33:16;;;;;;;27.30;17.70;;;10.90;99.90;;;;;;6263677;22;20183;-78
2021/05/16 01:35:43;;;;;;;30.40;16.70;;;10.90;99.90;;;;;;6266758;22;20172;-78
2021/05/16 01:38:09;;;;;;;25.80;13.37;;;10.90;99.90;;;;;;6265562;22;20169;-78
2021/05/16 01:40:38;;;;;;;16.27;10.53;;;10.90;99.90;;;;;;6265601;22;20690;-78
2021/05/16 01:43:08;;;;;;;15.50;8.73;;;10.90;99.90;;;;;;6265468;22;20718;-79
2021/05/16 01:45:34;;;;;;;11.80;7.80;;;10.90;99.90;;;;;;6265959;22;20198;-79
2021/05/16 01:48:00;;;;;;;14.60;8.57;;;10.90;99.90;;;;;;6265425;22;20203;-78
2021/05/16 01:50:29;;;;;;;17.73;8.30;;;10.90;99.90;;;;;;6266034;22;20172;-79
2021/05/16 01:52:57;;;;;;;22.70;9.27;;;10.90;99.90;;;;;;6264777;22;20840;-78
2021/05/16 01:55:23;;;;;;;12.40;7.90;;;10.90;99.90;;;;;;6265652;22;20695;-77
2021/05/16 01:57:51;;;;;;;19.03;7.90;;;10.90;99.90;;;;;;6264808;22;20188;-77
2021/05/16 02:00:26;;;;;;;16.67;7.97;;;10.90;99.90;;;;;;6264889;22;20172;-78
2021/05/16 02:02:53;;;;;;;19.60;10.47;;;10.90;99.90;;;;;;6264171;22;20204;-79
2021/05/16 02:05:20;;;;;;;19.13;8.63;;;10.90;99.90;;;;;;6265522;22;20220;-79
2021/05/16 02:07:48;;;;;;;19.93;10.53;;;10.90;99.90;;;;;;6265890;22;20172;-77
2021/05/16 02:10:17;;;;;;;21.27;11.13;;;10.90;99.90;;;;;;6266298;22;20173;-80
2021/05/16 02:12:43;;;;;;;25.87;10.10;;;10.90;99.90;;;;;;6264699;22;20393;-78
2021/05/16 02:15:12;;;;;;;18.73;9.00;;;10.90;99.90;;;;;;6265283;22;20168;-78
2021/05/16 02:17:39;;;;;;;25.27;10.33;;;10.90;99.90;;;;;;6265825;22;20192;-78
2021/05/16 02:20:07;;;;;;;16.33;9.40;;;10.90;99.90;;;;;;6264559;22;20173;-80
2021/05/16 02:22:33;;;;;;;20.60;8.87;;;10.90;99.90;;;;;;6265424;22;20180;-78
2021/05/16 02:25:00;;;;;;;14.23;8.53;;;10.90;99.90;;;;;;6265609;22;20173;-79
2021/05/16 02:27:26;;;;;;;15.20;7.50;;;10.90;99.90;;;;;;6264834;22;20172;-77
2021/05/16 02:29:53;;;;;;;16.00;6.90;;;10.90;99.90;;;;;;6265773;22;20204;-78
2021/05/16 02:32:20;;;;;;;21.47;8.13;;;10.80;99.90;;;;;;6265481;22;20168;-79
2021/05/16 02:34:47;;;;;;;22.40;9.60;;;10.90;99.90;;;;;;6265414;22;20176;-80
2021/05/16 02:37:13;;;;;;;13.80;7.23;;;10.80;99.90;;;;;;6265741;22;20242;-77
2021/05/16 02:39:39;;;;;;;15.40;7.57;;;10.80;99.90;;;;;;6264851;22;20176;-78
2021/05/16 02:42:06;;;;;;;14.27;7.53;;;10.80;99.90;;;;;;6264275;22;20165;-78
2021/05/16 02:44:32;;;;;;;12.20;6.70;;;10.80;99.90;;;;;;6264724;22;20176;-79
2021/05/16 02:46:59;;;;;;;18.77;8.90;;;10.80;99.90;;;;;;6265307;22;20192;-79
2021/05/16 02:49:26;;;;;;;11.77;6.97;;;10.80;99.90;;;;;;6264256;22;20203;-79
2021/05/16 02:51:53;;;;;;;19.43;9.87;;;10.80;99.90;;;;;;6265357;22;20173;-79
2021/05/16 02:54:19;;;;;;;14.50;8.40;;;10.80;99.90;;;;;;6264769;22;20184;-78
2021/05/16 02:56:45;;;;;;;15.17;8.77;;;10.90;99.90;;;;;;6265141;22;20597;-79
2021/05/16 02:59:11;;;;;;;17.90;11.20;;;10.80;99.90;;;;;;6264917;22;20620;-78
2021/05/16 03:01:38;;;;;;;18.90;9.33;;;10.80;99.90;;;;;;6263962;22;20184;-78
2021/05/16 03:04:05;;;;;;;14.13;7.47;;;10.90;99.90;;;;;;6264318;22;20201;-78
2021/05/16 03:06:32;;;;;;;17.17;7.30;;;10.90;99.90;;;;;;6264979;22;20172;-77
2021/05/16 03:08:58;;;;;;;11.03;6.97;;;10.90;99.90;;;;;;6264177;22;20600;-78
2021/05/16 03:11:25;;;;;;;13.40;6.90;;;10.90;99.90;;;;;;6265611;22;20177;-79
2021/05/16 03:13:51;;;;;;;20.37;8.50;;;10.90;99.90;;;;;;6265922;22;20172;-79
2021/05/16 03:16:17;;;;;;;15.60;8.23;;;10.90;99.90;;;;;;6264346;22;20168;-78
2021/05/16 03:18:44;;;;;;;20.10;7.80;;;10.90;99.90;;;;;;6265313;22;20177;-79
2021/05/16 03:21:10;;;;;;;13.77;6.70;;;10.90;99.90;;;;;;6265209;22;20173;-77
2021/05/16 03:23:37;;;;;;;14.63;7.63;;;10.90;99.90;;;;;;6265165;22;20177;-79
2021/05/16 03:26:04;;;;;;;16.53;7.87;;;10.90;99.90;;;;;;6264799;22;20181;-77
2021/05/16 03:28:31;;;;;;;14.23;6.67;;;10.80;99.90;;;;;;6265032;22;20192;-82
2021/05/16 03:30:58;;;;;;;12.97;6.70;;;10.80;99.90;;;;;;6263613;22;20172;-78
2021/05/16 03:33:25;;;;;;;15.57;7.63;;;10.80;99.90;;;;;;6264790;22;20180;-80
2021/05/16 03:35:51;;;;;;;16.63;7.43;;;10.80;99.90;;;;;;6264733;22;20234;-78
2021/05/16 03:38:17;;;;;;;19.83;10.70;;;10.80;99.90;;;;;;6264962;22;20173;-79
2021/05/16 03:40:44;;;;;;;18.07;9.37;;;10.80;99.90;;;;;;6265227;22;20184;-79
2021/05/16 03:43:11;;;;;;;25.17;12.03;;;10.80;99.90;;;;;;6265241;22;20169;-80
2021/05/16 03:45:37;;;;;;;24.17;12.87;;;10.80;99.90;;;;;;6263530;22;20179;-80
2021/05/16 03:48:05;;;;;;;31.77;15.47;;;10.80;99.90;;;;;;6263580;22;20928;-79
2021/05/16 03:50:31;;;;;;;23.87;13.03;;;10.80;99.90;;;;;;6264548;22;20577;-80
2021/05/16 03:52:58;;;;;;;33.37;13.70;;;10.80;99.90;;;;;;6264865;22;20177;-80
2021/05/16 03:55:24;;;;;;;28.63;14.77;;;10.80;99.90;;;;;;6265556;22;20180;-79
2021/05/16 03:57:52;;;;;;;29.70;14.97;;;10.80;99.90;;;;;;6264001;22;20176;-79
2021/05/16 04:00:19;;;;;;;25.57;13.30;;;10.80;99.90;;;;;;6264774;22;20777;-79
2021/05/16 04:02:46;;;;;;;24.57;10.30;;;10.80;99.90;;;;;;6265219;22;20208;-79
2021/05/16 04:05:14;;;;;;;23.03;9.27;;;10.80;99.90;;;;;;6265059;22;20179;-79
2021/05/16 04:07:40;;;;;;;17.13;8.93;;;10.80;99.90;;;;;;6265068;22;20172;-79
2021/05/16 04:10:08;;;;;;;18.70;10.43;;;10.90;99.90;;;;;;6264769;22;20188;-78
2021/05/16 04:12:35;;;;;;;24.57;11.07;;;10.90;99.90;;;;;;6264520;22;20218;-77
2021/05/16 04:15:03;;;;;;;17.90;9.70;;;10.90;99.90;;;;;;6265263;22;20189;-78
2021/05/16 04:17:30;;;;;;;17.43;10.40;;;10.90;99.90;;;;;;6265867;22;20165;-80
2021/05/16 04:19:56;;;;;;;17.23;9.67;;;11.00;99.90;;;;;;6263942;22;20272;-79
2021/05/16 04:22:22;;;;;;;18.00;10.57;;;11.00;99.90;;;;;;6264548;22;20168;-79
2021/05/16 04:24:48;;;;;;;18.27;9.90;;;11.00;99.90;;;;;;6265145;22;20172;-79
2021/05/16 04:27:15;;;;;;;13.10;8.77;;;11.00;99.90;;;;;;6265245;22;20172;-79
2021/05/16 04:29:43;;;;;;;17.47;8.77;;;11.00;99.90;;;;;;6263899;22;20215;-77
2021/05/16 04:32:10;;;;;;;22.47;11.33;;;11.10;99.90;;;;;;6264834;22;20176;-77
2021/05/16 04:34:37;;;;;;;21.93;11.13;;;11.10;99.90;;;;;;6263816;22;20172;-78
2021/05/16 04:37:03;;;;;;;22.90;11.00;;;11.10;99.90;;;;;;6264426;22;20783;-78
2021/05/16 04:39:29;;;;;;;21.43;10.27;;;11.10;99.90;;;;;;6264556;22;20184;-79
2021/05/16 04:41:56;;;;;;;24.50;12.40;;;11.10;99.90;;;;;;6263694;22;20250;-78
2021/05/16 04:44:22;;;;;;;19.97;10.20;;;11.10;99.90;;;;;;6264662;22;20169;-79
2021/05/16 04:46:48;;;;;;;17.00;7.80;;;11.10;99.90;;;;;;6264699;22;20199;-79
2021/05/16 04:49:16;;;;;;;13.30;8.27;;;11.20;99.90;;;;;;6264252;22;20204;-77
2021/05/16 04:51:42;;;;;;;15.77;8.20;;;11.20;99.90;;;;;;6263649;22;20168;-78
2021/05/16 04:54:09;;;;;;;23.60;8.40;;;11.20;99.90;;;;;;6263835;22;20165;-79
2021/05/16 04:56:35;;;;;;;11.90;5.77;;;11.30;99.90;;;;;;6265134;22;20183;-78
2021/05/16 04:59:02;;;;;;;10.53;5.57;;;11.30;99.90;;;;;;6265649;22;20176;-78
2021/05/16 05:01:29;;;;;;;8.87;5.93;;;11.30;99.90;;;;;;6263460;22;20173;-78
2021/05/16 05:03:56;;;;;;;10.90;7.37;;;11.30;99.90;;;;;;6264578;22;20207;-78
2021/05/16 05:06:23;;;;;;;11.37;6.67;;;11.30;99.90;;;;;;6264160;22;20430;-79
2021/05/16 05:08:50;;;;;;;13.00;6.33;;;11.30;99.90;;;;;;6264488;22;20599;-79
2021/05/16 05:11:16;;;;;;;19.03;7.40;;;11.30;99.90;;;;;;6264828;22;20169;-79
2021/05/16 05:13:43;;;;;;;16.37;6.20;;;11.30;99.90;;;;;;6264344;22;20176;-78
2021/05/16 05:16:09;;;;;;;15.07;5.80;;;11.30;99.90;;;;;;6263248;22;20223;-77
2021/05/16 05:18:35;;;;;;;9.10;4.90;;;11.30;99.90;;;;;;6264166;22;20175;-79
2021/05/16 05:21:02;;;;;;;14.83;5.43;;;11.30;99.90;;;;;;6263390;22;20224;-79
2021/05/16 05:23:29;;;;;;;12.50;5.40;;;11.30;99.90;;;;;;6263529;22;20430;-79
2021/05/16 05:25:58;;;;;;;18.27;6.30;;;11.30;99.90;;;;;;6265142;22;20176;-79
2021/05/16 05:28:24;;;;;;;13.77;6.20;;;11.30;99.90;;;;;;6266044;22;20250;-78
2021/05/16 05:30:51;;;;;;;13.47;6.10;;;11.20;99.90;;;;;;6266361;22;20184;-79
2021/05/16 05:33:19;;;;;;;16.53;6.87;;;11.20;99.90;;;;;;6266033;22;20176;-78
2021/05/16 05:35:45;;;;;;;13.27;5.67;;;11.30;99.90;;;;;;6265170;22;20173;-79
2021/05/16 05:38:11;;;;;;;10.90;4.90;;;11.30;99.90;;;;;;6263928;22;20168;-79
2021/05/16 05:40:39;;;;;;;13.57;5.67;;;11.30;99.90;;;;;;6264002;22;20172;-79
2021/05/16 05:43:05;;;;;;;14.47;7.23;;;11.30;99.90;;;;;;6264722;22;20183;-77
2021/05/16 05:45:31;;;;;;;20.03;10.27;;;11.20;99.90;;;;;;6263608;22;20172;-78
2021/05/16 05:47:57;;;;;;;22.80;10.20;;;11.20;99.90;;;;;;6263549;22;20516;-77
2021/05/16 05:50:24;;;;;;;19.27;9.87;;;11.20;99.90;;;;;;6263676;22;20185;-77
2021/05/16 05:52:50;;;;;;;12.97;6.93;;;11.20;99.90;;;;;;6264069;22;20208;-78
2021/05/16 05:55:17;;;;;;;20.50;9.37;;;11.20;99.90;;;;;;6264260;22;20545;-78
2021/05/16 05:57:44;;;;;;;15.47;9.13;;;11.20;99.90;;;;;;6263677;22;20172;-78
2021/05/16 06:00:11;;;;;;;19.47;9.47;;;11.20;99.90;;;;;;6264391;22;20553;-78
2021/05/16 06:02:37;;;;;;;20.50;9.50;;;11.20;99.90;;;;;;6266382;22;20196;-80
2021/05/16 06:05:05;;;;;;;17.63;9.13;;;11.30;99.90;;;;;;6264992;22;20488;-78
2021/05/16 06:07:31;;;;;;;18.60;10.03;;;11.30;99.90;;;;;;6264745;22;20542;-80
2021/05/16 06:09:58;;;;;;;23.50;10.47;;;11.30;99.90;;;;;;6264856;22;20453;-78
2021/05/16 06:12:25;;;;;;;21.23;9.90;;;11.30;99.90;;;;;;6264120;22;20453;-78
2021/05/16 06:14:53;;;;;;;18.93;8.13;;;11.30;99.90;;;;;;6263564;22;20482;-79
2021/05/16 06:17:20;;;;;;;19.67;9.37;;;11.30;99.90;;;;;;6264202;22;20192;-78
2021/05/16 06:19:46;;;;;;;22.17;9.53;;;11.30;99.90;;;;;;6263782;22;20169;-78
2021/05/16 06:22:14;;;;;;;17.40;6.23;;;11.30;99.90;;;;;;6266097;22;20260;-78
2021/05/16 06:24:40;;;;;;;13.77;5.10;;;11.30;99.90;;;;;;6266358;22;20172;-79
2021/05/16 06:27:07;;;;;;;16.60;4.73;;;11.30;99.90;;;;;;6266013;22;20169;-79
2021/05/16 06:29:34;;;;;;;7.30;4.23;;;11.30;99.90;;;;;;6266089;22;20203;-78
2021/05/16 06:32:01;;;;;;;16.30;4.17;;;11.40;99.90;;;;;;6266360;22;20223;-80
2021/05/16 06:34:27;;;;;;;13.30;5.77;;;11.40;99.90;;;;;;6265923;22;20172;-79
2021/05/16 06:36:55;;;;;;;16.50;5.60;;;11.50;99.90;;;;;;6267185;22;20232;-78
2021/05/16 06:39:21;;;;;;;13.80;3.70;;;11.50;99.90;;;;;;6268354;22;20172;-77
2021/05/16 06:41:47;;;;;;;9.87;2.97;;;11.50;99.90;;;;;;6268150;22;20179;-82
2021/05/16 06:44:14;;;;;;;7.57;2.50;;;11.50;99.90;;;;;;6268630;22;20595;-82
2021/05/16 06:46:40;;;;;;;11.10;3.03;;;11.50;99.90;;;;;;6267368;22;20222;-83
2021/05/16 06:49:07;;;;;;;5.60;2.30;;;11.50;99.90;;;;;;6267983;22;20192;-82
2021/05/16 06:51:35;;;;;;;10.03;2.47;;;11.50;99.90;;;;;;6266555;22;20588;-76
2021/05/16 06:54:12;;;;;;;10.07;3.10;;;11.60;99.90;;;;;;6236244;22;20597;-79
2021/05/16 06:56:38;;;;;;;10.80;2.73;;;11.60;99.90;;;;;;6265024;22;20165;-81
2021/05/16 06:59:05;;;;;;;5.87;2.27;;;11.70;99.90;;;;;;6264608;22;20176;-75
2021/05/16 07:01:32;;;;;;;8.57;2.33;;;11.70;99.90;;;;;;6264642;22;20245;-74
2021/05/16 07:03:58;;;;;;;5.53;2.00;;;11.80;99.90;;;;;;6264967;22;20204;-79
2021/05/16 07:06:26;;;;;;;9.43;2.10;;;11.80;99.90;;;;;;6265396;22;20187;-75
2021/05/16 07:08:53;;;;;;;8.90;2.50;;;11.80;99.90;;;;;;6265058;22;20192;-75
2021/05/16 07:11:19;;;;;;;12.77;3.27;;;11.80;99.90;;;;;;6254377;22;20169;-76
2021/05/16 07:13:46;;;;;;;18.27;3.63;;;11.90;99.90;;;;;;6264948;22;20169;-77
2021/05/16 07:16:12;;;;;;;12.57;3.57;;;12.00;99.90;;;;;;6264319;22;20226;-76
2021/05/16 07:18:38;;;;;;;13.90;3.20;;;12.00;99.90;;;;;;6264786;22;20168;-75
2021/05/16 07:21:05;;;;;;;23.50;5.57;;;12.10;99.90;;;;;;6264633;22;20234;-79
2021/05/16 07:23:32;;;;;;;25.77;6.10;;;12.20;99.90;;;;;;6264798;22;20256;-77
2021/05/16 07:25:59;;;;;;;20.93;4.50;;;12.30;99.90;;;;;;6264548;22;20198;-77
2021/05/16 07:28:26;;;;;;;22.03;5.30;;;12.40;99.90;;;;;;6265184;22;20196;-78
2021/05/16 07:30:52;;;;;;;24.87;6.00;;;12.50;99.90;;;;;;6265018;22;20172;-75
2021/05/16 07:33:18;;;;;;;25.83;6.50;;;12.60;99.90;;;;;;6263510;22;20173;-77
2021/05/16 07:35:44;;;;;;;23.10;6.27;;;12.70;99.90;;;;;;6264141;22;20184;-75
2021/05/16 07:38:11;;;;;;;39.40;8.17;;;12.70;99.90;;;;;;6264897;22;20172;-78
2021/05/16 07:40:38;;;;;;;23.30;5.67;;;12.80;99.90;;;;;;6264754;22;20608;-80
2021/05/16 07:43:05;;;;;;;25.67;7.07;;;12.90;99.90;;;;;;6262883;22;20230;-79
2021/05/16 07:45:32;;;;;;;31.97;7.37;;;12.90;99.90;;;;;;6264798;22;20463;-77
2021/05/16 07:47:58;;;;;;;29.97;6.03;;;13.10;99.90;;;;;;6264402;22;20280;-79
2021/05/16 07:50:24;;;;;;;27.87;6.97;;;13.30;99.90;;;;;;6263648;22;20200;-77
2021/05/16 07:52:51;;;;;;;23.23;5.50;;;13.60;99.90;;;;;;6264676;22;20173;-77
2021/05/16 07:55:17;;;;;;;33.07;6.47;;;13.70;99.90;;;;;;6265270;22;20632;-81
2021/05/16 07:57:44;;;;;;;29.40;6.80;;;13.70;99.90;;;;;;6263886;22;20179;-76
2021/05/16 08:00:12;;;;;;;28.63;6.87;;;13.80;99.90;;;;;;6265927;22;20169;-78
2021/05/16 08:02:40;;;;;;;31.20;7.23;;;13.90;99.90;;;;;;6264708;22;20818;-76
2021/05/16 08:05:08;;;;;;;20.60;5.43;;;13.90;99.90;;;;;;6264648;22;20165;-76
2021/05/16 08:07:34;;;;;;;26.10;5.90;;;14.00;99.90;;;;;;6264622;22;20176;-75
2021/05/16 08:10:00;;;;;;;21.57;6.60;;;13.90;99.90;;;;;;6264173;22;20215;-77
2021/05/16 08:12:26;;;;;;;20.13;5.67;;;13.90;99.90;;;;;;6263928;22;20187;-77
2021/05/16 08:14:54;;;;;;;33.23;5.70;;;13.90;99.90;;;;;;6264351;22;20176;-77
2021/05/16 08:17:20;;;;;;;30.60;5.73;;;13.80;99.90;;;;;;6264127;22;20577;-81
2021/05/16 08:19:46;;;;;;;26.20;6.07;;;13.70;99.90;;;;;;6263473;22;20483;-76
2021/05/16 08:22:12;;;;;;;25.27;5.73;;;13.60;99.90;;;;;;6264273;22;20565;-76
2021/05/16 08:24:39;;;;;;;26.73;5.63;;;13.70;99.90;;;;;;6263837;22;20461;-77
2021/05/16 08:27:06;;;;;;;24.83;6.83;;;13.90;99.90;;;;;;6263270;22;20207;-77
2021/05/16 08:29:35;;;;;;;28.27;6.80;;;14.10;99.90;;;;;;6262850;22;20198;-77
2021/05/16 08:32:03;;;;;;;24.87;6.03;;;14.20;99.90;;;;;;6262555;22;20566;-76
2021/05/16 08:34:29;;;;;;;25.83;5.77;;;14.30;99.90;;;;;;6263564;22;20438;-76
2021/05/16 08:36:55;;;;;;;20.37;5.60;;;14.40;99.90;;;;;;6263623;22;20569;-76
2021/05/16 08:39:22;;;;;;;20.13;5.77;;;14.40;99.90;;;;;;6263367;22;20187;-75
2021/05/16 08:41:48;;;;;;;33.67;7.70;;;14.50;99.90;;;;;;6263185;22;20481;-76
2021/05/16 08:44:14;;;;;;;25.70;6.60;;;14.80;99.90;;;;;;6264640;22;20396;-75
2021/05/16 08:46:42;;;;;;;26.37;6.77;;;14.80;99.90;;;;;;6263513;22;20250;-78
2021/05/16 08:49:09;;;;;;;24.97;5.73;;;14.80;99.90;;;;;;6263130;22;20189;-77
2021/05/16 08:51:35;;;;;;;25.50;7.60;;;14.60;99.90;;;;;;6263903;22;20388;-75
2021/05/16 08:54:02;;;;;;;23.70;6.23;;;14.60;99.90;;;;;;6264015;22;20418;-77
2021/05/16 08:56:28;;;;;;;26.77;5.73;;;14.50;99.90;;;;;;6262642;22;20165;-78
2021/05/16 08:58:54;;;;;;;28.93;7.70;;;14.30;99.90;;;;;;6263573;22;20374;-77
2021/05/16 09:01:21;;;;;;;23.03;6.00;;;14.20;99.90;;;;;;6263265;22;20168;-76
2021/05/16 09:03:48;;;;;;;23.73;6.87;;;14.00;99.90;;;;;;6262743;22;20639;-77
2021/05/16 09:06:16;;;;;;;14.53;4.67;;;13.80;99.90;;;;;;6263222;22;20173;-78
2021/05/16 09:08:43;;;;;;;15.73;5.70;;;13.50;99.90;;;;;;6262945;22;20193;-77
2021/05/16 09:11:10;;;;;;;14.23;4.67;;;13.30;99.90;;;;;;6263003;22;20172;-77
2021/05/16 09:13:40;;;;;;;11.83;4.60;;;13.10;99.90;;;;;;6263242;22;20169;-76
2021/05/16 09:16:11;;;;;;;14.57;5.20;;;13.00;99.90;;;;;;6262440;22;20180;-76
2021/05/16 09:18:43;;;;;;;24.17;5.90;;;12.90;99.90;;;;;;6263141;22;20612;-75
2021/05/16 09:21:26;;;;;;;28.67;9.27;;;12.90;99.90;;;;;;6262472;22;20600;-75
2021/05/16 09:24:06;;;;;;;28.27;8.57;;;13.00;99.90;;;;;;6263789;22;20179;-79
2021/05/16 09:26:34;;;;;;;32.00;7.30;;;13.10;99.90;;;;;;6263819;22;20164;-76
2021/05/16 09:29:22;;;;;;;31.60;10.80;;;13.20;99.90;;;;;;6263008;22;20212;-77
2021/05/16 09:31:50;;;;;;;25.63;7.47;;;13.30;99.90;;;;;;6262845;22;20615;-75
2021/05/16 09:34:16;;;;;;;26.80;6.57;;;13.60;99.90;;;;;;6263583;22;20176;-76
2021/05/16 09:36:46;;;;;;;34.83;9.63;;;14.00;99.90;;;;;;6262470;22;20614;-78
2021/05/16 09:39:18;;;;;;;32.00;8.80;;;14.30;99.90;;;;;;6264082;22;20251;-79
2021/05/16 09:42:11;;;;;;;33.07;12.00;;;14.50;99.90;;;;;;6263808;22;20208;-75
2021/05/16 09:44:39;;;;;;;36.47;13.83;;;14.50;99.90;;;;;;6233252;22;20185;-75
2021/05/16 09:47:11;;;;;;;32.40;13.03;;;14.70;99.90;;;;;;6263094;22;20303;-74
2021/05/16 09:49:37;;;;;;;39.50;14.43;;;15.00;99.90;;;;;;6263412;22;20184;-75
2021/05/16 09:52:08;;;;;;;31.63;10.73;;;15.20;99.90;;;;;;6262998;22;20195;-81
2021/05/16 09:54:53;;;;;;;35.97;11.57;;;15.30;99.90;;;;;;6262561;22;20192;-75
2021/05/16 09:57:19;;;;;;;25.83;7.73;;;15.40;99.90;;;;;;6265530;22;20196;-76
2021/05/16 09:59:47;;;;;;;30.75;9.52;;;15.40;99.90;;;;;;6267037;22;20180;-82
2021/05/16 10:02:15;;;;;;;36.27;12.60;;;15.60;99.90;;;;;;6267814;22;20250;-78
2021/05/16 10:04:41;;;;;;;26.07;8.87;;;15.60;99.90;;;;;;6265466;22;20506;-76
2021/05/16 10:07:09;;;;;;;27.47;8.23;;;15.50;99.90;;;;;;6266111;22;20736;-78
2021/05/16 10:09:35;;;;;;;32.70;10.63;;;15.40;99.90;;;;;;6266114;22;20254;-83
2021/05/16 10:12:03;;;;;;;31.90;11.60;;;15.30;99.90;;;;;;6265683;22;20176;-82
2021/05/16 10:14:31;;;;;;;35.27;11.90;;;15.50;99.90;;;;;;6266159;22;20177;-87
2021/05/16 10:17:00;;;;;;;27.95;8.43;;;15.80;99.90;;;;;;6267694;22;20180;-85
2021/05/16 10:19:32;;;;;;;24.08;7.15;;;15.90;99.90;;;;;;6269568;22;20172;-83
2021/05/16 10:22:04;;;;;;;23.58;8.88;;;15.90;99.90;;;;;;6267480;22;20316;-82
2021/05/16 10:24:38;;;;;;;32.37;9.83;;;15.90;99.90;;;;;;6268763;22;20275;-83
2021/05/16 10:27:20;;;;;;;32.28;10.80;;;15.70;99.90;;;;;;6267678;22;20165;-84
2021/05/16 10:29:47;;;;;;;29.30;8.63;;;15.60;99.90;;;;;;6267795;22;20208;-81
2021/05/16 10:32:21;;;;;;;23.98;8.43;;;15.60;99.90;;;;;;6268540;22;20169;-81
2021/05/16 10:34:53;;;;;;;23.15;6.68;;;15.90;99.90;;;;;;6269311;22;20709;-81
2021/05/16 10:37:41;;;;;;;24.17;6.78;;;16.30;99.90;;;;;;6267491;22;20195;-80
2021/05/16 10:40:25;;;;;;;24.20;5.55;;;16.60;99.90;;;;;;6266708;22;20172;-81
2021/05/16 10:42:54;;;;;;;21.95;5.90;;;17.10;99.90;;;;;;6266919;22;20191;-79
2021/05/16 10:45:23;;;;;;;29.80;9.65;;;17.60;99.90;;;;;;6267079;22;20560;-81
2021/05/16 10:47:54;;;;;;;28.88;7.68;;;17.90;99.90;;;;;;6265956;22;20593;-79
2021/05/16 10:50:50;;;;;;;26.13;6.82;;;18.10;99.90;;;;;;6265585;22;20192;-79
2021/05/16 10:53:23;;;;;;;28.13;10.32;;;18.30;99.90;;;;;;6268890;22;20169;-81
2021/05/16 10:55:52;;;;;;;26.02;7.20;;;18.40;99.90;;;;;;6270211;22;20823;-86
2021/05/16 10:58:39;;;;;;;25.35;7.30;;;18.70;99.90;;;;;;6270731;22;20172;-86
2021/05/16 11:01:07;;;;;;;15.48;4.70;;;18.80;99.90;;;;;;6268966;22;20168;-83
2021/05/16 11:03:43;;;;;;;17.48;4.28;;;18.90;99.90;;;;;;6270276;22;20560;-86
2021/05/16 11:06:10;;;;;;;22.58;6.93;;;19.00;99.90;;;;;;6268684;22;20169;-79
2021/05/16 11:09:14;;;;;;;25.52;6.40;;;19.10;99.90;;;;;;6268393;22;20165;-85
2021/05/16 11:11:52;;;;;;;20.08;6.47;;;19.20;99.90;;;;;;6270024;22;20171;-84
2021/05/16 11:14:19;;;;;;;22.23;6.85;;;19.20;99.90;;;;;;6270131;22;20164;-83
2021/05/16 11:16:52;;;;;;;17.73;5.65;;;19.20;99.90;;;;;;6269031;22;20183;-78
2021/05/16 11:19:22;;;;;;;29.48;13.20;;;19.20;99.90;;;;;;6269598;22;20644;-83
2021/05/16 11:21:48;;;;;;;22.42;8.55;;;19.10;99.90;;;;;;6267609;22;20211;-81
2021/05/16 11:24:16;;;;;;;30.00;8.85;;;19.20;99.90;;;;;;6268022;22;20254;-77
2021/05/16 11:26:43;;;;;;;26.60;9.63;;;19.40;99.90;;;;;;6267694;22;20275;-80
2021/05/16 11:29:10;;;;;;;29.38;10.95;;;19.60;99.90;;;;;;6267670;22;20184;-81
2021/05/16 11:31:37;;;;;;;28.70;10.10;;;19.50;99.90;;;;;;6268082;22;20172;-81
2021/05/16 11:34:06;;;;;;;27.00;7.82;;;19.40;99.90;;;;;;6265857;22;20173;-81
2021/05/16 11:36:33;;;;;;;20.38;5.45;;;19.40;99.90;;;;;;6266499;22;20196;-82
2021/05/16 11:39:01;;;;;;;20.27;5.43;;;19.50;99.90;;;;;;6267210;22;20173;-82
2021/05/16 11:41:33;;;;;;;18.63;5.57;;;19.50;99.90;;;;;;6267254;22;20255;-80
2021/05/16 11:44:03;;;;;;;18.50;5.28;;;19.50;99.90;;;;;;6265387;22;20565;-79
2021/05/16 11:46:33;;;;;;;22.77;7.00;;;19.80;99.90;;;;;;6266124;22;20252;-82
2021/05/16 11:49:00;;;;;;;28.48;10.77;;;19.90;99.90;;;;;;6266273;22;20282;-82
2021/05/16 11:51:26;;;;;;;25.58;9.43;;;19.90;99.90;;;;;;6265143;22;20165;-80
2021/05/16 11:53:55;;;;;;;21.67;8.43;;;19.90;99.90;;;;;;6265078;22;20230;-78
2021/05/16 11:56:23;;;;;;;17.13;6.47;;;20.00;99.90;;;;;;6266416;22;20173;-81
2021/05/16 11:58:51;;;;;;;19.35;6.32;;;20.20;99.90;;;;;;6266083;22;20183;-78
2021/05/16 12:01:19;;;;;;;19.20;6.00;;;20.50;99.90;;;;;;6264547;22;20176;-79
2021/05/16 12:04:00;;;;;;;21.27;6.40;;;20.60;99.90;;;;;;6261489;22;20209;-77
2021/05/16 12:06:27;;;;;;;23.15;6.80;;;20.50;99.90;;;;;;6265664;22;20168;-77
2021/05/16 12:09:07;;;;;;;22.58;6.15;;;20.20;99.90;;;;;;6263460;22;20226;-79
2021/05/16 12:11:34;;;;;;;21.48;5.60;;;20.10;99.90;;;;;;6264623;22;20164;-79
2021/05/16 12:14:08;;;;;;;19.83;6.70;;;20.00;99.90;;;;;;6264369;22;20181;-78
2021/05/16 12:16:36;;;;;;;28.30;8.63;;;19.60;99.90;;;;;;6265490;22;20583;-78
2021/05/16 12:19:03;;;;;;;23.45;7.90;;;19.60;99.90;;;;;;6264660;22;20172;-78
2021/05/16 12:21:30;;;;;;;24.48;8.30;;;19.60;99.90;;;;;;6265596;22;20509;-80
2021/05/16 12:23:59;;;;;;;26.00;6.45;;;19.70;99.90;;;;;;6265100;22;20172;-78
2021/05/16 12:26:27;;;;;;;19.95;5.38;;;19.90;99.90;;;;;;6264665;22;20183;-79
2021/05/16 12:28:55;;;;;;;23.38;7.80;;;20.10;99.90;;;;;;6264426;22;20164;-80
2021/05/16 12:31:23;;;;;;;24.63;8.55;;;20.00;99.90;;;;;;6265236;22;20834;-82
2021/05/16 12:33:52;;;;;;;26.92;9.43;;;20.20;99.90;;;;;;6264524;22;20538;-80
2021/05/16 12:36:19;;;;;;;22.42;6.28;;;20.20;99.90;;;;;;6265697;22;20176;-79